Time;durP1;ratioP1;P1;durP2;ratioP2;P2;SDS_P1;SDS_P2;PMS_P1;PMS_P2;Temp;Humidity;BMP_temperature;BMP_pressure;BME280_temperature;BME280_humidity;BME280_pressure;Samples;Min_cycle;Max_cycle;Signal;HPM_P1;HPM_P2
2023/08/25 00:02:11;;;;;;;8.40;3.78;;;18.40;99.90;;;;;;5025047;28;20091;-61
2023/08/25 00:04:38;;;;;;;5.00;3.47;;;18.40;99.90;;;;;;5026915;28;20056;-62
2023/08/25 00:07:05;;;;;;;5.88;3.63;;;18.40;99.90;;;;;;5027247;28;20562;-62
2023/08/25 00:09:31;;;;;;;5.40;3.67;;;18.50;99.90;;;;;;5024659;28;20127;-62
2023/08/25 00:11:58;;;;;;;7.32;3.85;;;18.50;99.90;;;;;;5027349;28;20128;-61
2023/08/25 00:14:25;;;;;;;7.20;4.07;;;18.50;99.90;;;;;;5027470;28;20045;-61
2023/08/25 00:16:52;;;;;;;6.05;3.28;;;18.50;99.90;;;;;;5027253;28;20053;-62
2023/08/25 00:19:18;;;;;;;6.43;3.03;;;18.40;99.90;;;;;;5028268;28;20051;-61
2023/08/25 00:21:45;;;;;;;9.52;3.38;;;18.40;99.90;;;;;;5030352;28;20045;-62
2023/08/25 00:24:12;;;;;;;7.72;4.28;;;18.30;99.90;;;;;;5029846;28;20049;-61
2023/08/25 00:26:39;;;;;;;7.70;4.43;;;18.30;99.90;;;;;;5030965;28;20049;-62
2023/08/25 00:29:06;;;;;;;6.53;3.65;;;18.40;99.90;;;;;;5013187;28;20049;-62
2023/08/25 00:31:33;;;;;;;7.75;3.95;;;18.40;99.90;;;;;;5030717;28;20045;-61
2023/08/25 00:34:02;;;;;;;9.35;3.42;;;18.30;99.90;;;;;;5030468;28;20044;-61
2023/08/25 00:36:29;;;;;;;10.13;4.05;;;18.30;99.90;;;;;;5030767;28;20049;-61
2023/08/25 00:38:56;;;;;;;6.50;3.90;;;18.30;99.90;;;;;;5030868;28;20065;-61
2023/08/25 00:41:23;;;;;;;4.53;3.55;;;18.30;99.90;;;;;;5030638;28;20053;-61
2023/08/25 00:43:49;;;;;;;4.88;3.63;;;18.20;99.90;;;;;;5030702;28;20096;-61
2023/08/25 00:46:16;;;;;;;6.05;3.25;;;18.20;99.90;;;;;;5030608;28;20140;-61
2023/08/25 00:48:43;;;;;;;7.30;3.78;;;18.20;99.90;;;;;;5013253;28;20041;-63
2023/08/25 00:51:10;;;;;;;6.05;3.78;;;18.10;99.90;;;;;;5030235;28;20558;-61
2023/08/25 00:53:37;;;;;;;5.55;3.00;;;18.10;99.90;;;;;;5030674;28;20050;-63
2023/08/25 00:56:04;;;;;;;5.82;3.65;;;18.10;99.90;;;;;;5030692;28;20056;-61
2023/08/25 00:58:31;;;;;;;7.47;3.67;;;18.10;99.90;;;;;;5030648;28;20444;-61
2023/08/25 01:00:58;;;;;;;7.30;3.58;;;18.10;99.90;;;;;;5030170;28;20497;-62
2023/08/25 01:03:25;;;;;;;7.93;4.43;;;18.10;99.90;;;;;;5011967;28;20073;-62
2023/08/25 01:05:52;;;;;;;5.15;3.55;;;18.00;99.90;;;;;;5012571;28;20397;-62
2023/08/25 01:08:19;;;;;;;4.35;3.13;;;17.90;99.90;;;;;;4994836;28;20049;-61
2023/08/25 01:11:02;;;;;;;8.27;3.88;;;18.00;99.90;;;;;;5029283;28;20512;-61
2023/08/25 01:13:42;;;;;;;5.23;3.27;;;18.00;99.90;;;;;;5010325;28;20049;-61
2023/08/25 01:16:09;;;;;;;7.18;4.10;;;17.90;99.90;;;;;;4987062;28;20294;-61
2023/08/25 01:18:36;;;;;;;9.63;3.30;;;17.90;99.90;;;;;;5011805;28;20514;-61
2023/08/25 01:21:03;;;;;;;5.22;3.47;;;17.90;99.90;;;;;;5012354;28;20042;-60
2023/08/25 01:23:57;;;;;;;4.78;2.72;;;17.90;99.90;;;;;;5011940;28;20058;-61
2023/08/25 01:26:24;;;;;;;6.68;3.08;;;17.90;99.90;;;;;;5012550;28;20046;-61
2023/08/25 01:28:51;;;;;;;5.15;2.58;;;17.90;99.90;;;;;;5029562;28;20574;-61
2023/08/25 01:31:21;;;;;;;9.32;3.45;;;17.90;99.90;;;;;;5026848;28;20451;-61
2023/08/25 01:33:48;;;;;;;3.30;2.40;;;17.80;99.90;;;;;;5029441;28;20119;-61
2023/08/25 01:36:25;;;;;;;7.07;2.53;;;17.80;99.90;;;;;;4996182;28;20103;-61
2023/08/25 01:39:04;;;;;;;11.75;3.20;;;17.80;99.90;;;;;;4996489;28;20049;-61
2023/08/25 01:41:44;;;;;;;3.75;2.30;;;17.70;99.90;;;;;;5026204;28;20087;-61
2023/08/25 01:44:12;;;;;;;8.00;2.47;;;17.70;99.90;;;;;;5028627;28;20049;-61
2023/08/25 01:46:43;;;;;;;9.77;2.90;;;17.70;99.90;;;;;;4984969;28;20049;-61
2023/08/25 01:49:10;;;;;;;8.50;2.38;;;17.60;99.90;;;;;;5012106;28;20045;-61
2023/08/25 01:51:37;;;;;;;7.38;2.40;;;17.70;99.90;;;;;;4999716;28;20505;-61
2023/08/25 01:54:04;;;;;;;5.22;2.13;;;17.60;99.90;;;;;;5029508;28;20049;-62
2023/08/25 01:56:31;;;;;;;8.05;2.67;;;17.60;99.90;;;;;;5011877;28;20400;-62
2023/08/25 01:58:58;;;;;;;4.45;2.00;;;17.70;99.90;;;;;;5026685;28;20165;-62
2023/08/25 02:01:25;;;;;;;5.72;2.50;;;17.60;99.90;;;;;;5029591;28;20452;-61
2023/08/25 02:03:52;;;;;;;5.75;2.50;;;17.60;99.90;;;;;;5011511;28;20512;-62
2023/08/25 02:06:19;;;;;;;5.32;2.33;;;17.60;99.90;;;;;;5028765;28;20061;-62
2023/08/25 02:08:46;;;;;;;6.32;3.00;;;17.50;99.90;;;;;;5028883;28;20309;-62
2023/08/25 02:11:13;;;;;;;5.38;2.28;;;17.50;99.90;;;;;;5027498;28;20333;-62
2023/08/25 02:13:39;;;;;;;4.43;2.55;;;17.50;99.90;;;;;;5028732;28;20064;-62
2023/08/25 02:16:07;;;;;;;5.35;2.67;;;17.50;99.90;;;;;;5028791;28;20064;-62
2023/08/25 02:18:33;;;;;;;9.52;3.47;;;17.40;99.90;;;;;;5029371;28;20045;-62
2023/08/25 02:21:00;;;;;;;6.20;3.00;;;17.40;99.90;;;;;;5025880;28;20053;-62
2023/08/25 02:23:27;;;;;;;6.60;2.53;;;17.40;99.90;;;;;;5029442;28;20045;-62
2023/08/25 02:25:54;;;;;;;7.43;2.05;;;17.40;99.90;;;;;;5029054;28;20049;-60
2023/08/25 02:28:21;;;;;;;5.07;2.40;;;17.30;99.90;;;;;;5033018;28;20053;-61
2023/08/25 02:30:47;;;;;;;5.75;2.80;;;17.30;99.90;;;;;;5028855;28;20042;-61
2023/08/25 02:33:15;;;;;;;8.55;2.83;;;17.30;99.90;;;;;;5029189;28;20049;-61
2023/08/25 02:35:42;;;;;;;3.60;2.30;;;17.40;99.90;;;;;;5028541;28;20052;-61
2023/08/25 02:38:10;;;;;;;12.77;3.15;;;17.40;99.90;;;;;;5028446;28;20103;-61
2023/08/25 02:40:39;;;;;;;2.83;1.70;;;17.40;99.90;;;;;;5028543;28;20056;-61
2023/08/25 02:43:06;;;;;;;5.18;1.98;;;17.40;99.90;;;;;;4994844;28;20117;-61
2023/08/25 02:45:34;;;;;;;7.78;2.45;;;17.40;99.90;;;;;;5028274;28;20057;-61
2023/08/25 02:48:01;;;;;;;6.07;1.92;;;17.40;99.90;;;;;;5028224;28;20041;-61
2023/08/25 02:50:28;;;;;;;6.10;2.45;;;17.30;99.90;;;;;;5009971;28;20046;-62
2023/08/25 02:52:56;;;;;;;7.78;2.33;;;17.40;99.90;;;;;;5028406;28;20049;-62
2023/08/25 02:55:23;;;;;;;4.32;2.00;;;17.40;99.90;;;;;;5028378;28;20097;-61
2023/08/25 02:57:50;;;;;;;7.65;1.98;;;17.50;99.90;;;;;;5028127;28;20567;-62
2023/08/25 03:00:20;;;;;;;4.43;2.13;;;17.50;99.90;;;;;;5028221;28;20048;-62
2023/08/25 03:02:48;;;;;;;9.15;2.35;;;17.50;99.90;;;;;;5028113;28;20045;-62
2023/08/25 03:05:16;;;;;;;6.55;2.05;;;17.50;99.90;;;;;;5027886;28;20220;-62
2023/08/25 03:07:42;;;;;;;8.80;2.00;;;17.50;99.90;;;;;;5028153;28;20041;-62
2023/08/25 03:10:09;;;;;;;5.30;1.75;;;17.40;99.90;;;;;;5026066;28;20045;-62
2023/08/25 03:12:37;;;;;;;2.67;1.33;;;17.40;99.90;;;;;;5024367;28;20461;-61
2023/08/25 03:15:04;;;;;;;7.60;1.65;;;17.50;99.90;;;;;;5011060;28;20049;-63
2023/08/25 03:17:31;;;;;;;4.75;1.65;;;17.50;99.90;;;;;;5027596;28;20075;-62
2023/08/25 03:19:57;;;;;;;2.15;1.38;;;17.40;99.90;;;;;;5027958;28;20041;-62
2023/08/25 03:22:24;;;;;;;3.63;1.52;;;17.40;99.90;;;;;;5026206;28;20054;-62
2023/08/25 03:24:51;;;;;;;4.03;1.40;;;17.40;99.90;;;;;;5028198;28;20046;-62
2023/08/25 03:27:18;;;;;;;7.13;2.03;;;17.40;99.90;;;;;;5027857;28;20053;-62
2023/08/25 03:29:44;;;;;;;7.82;1.73;;;17.50;99.90;;;;;;5027844;28;20041;-62
2023/08/25 03:32:11;;;;;;;8.38;1.42;;;17.40;99.90;;;;;;5028000;28;20123;-62
2023/08/25 03:34:38;;;;;;;5.07;1.52;;;17.40;99.90;;;;;;5027902;28;20046;-61
2023/08/25 03:37:05;;;;;;;6.88;1.70;;;17.40;99.90;;;;;;5027712;28;20500;-63
2023/08/25 03:39:32;;;;;;;4.55;1.67;;;17.30;99.90;;;;;;5027800;28;20583;-62
2023/08/25 03:41:59;;;;;;;4.10;1.40;;;17.30;99.90;;;;;;5027921;28;20128;-61
2023/08/25 03:44:26;;;;;;;3.00;1.15;;;17.30;99.90;;;;;;5028054;28;20053;-61
2023/08/25 03:46:53;;;;;;;4.38;1.40;;;17.20;99.90;;;;;;5021234;28;20049;-61
2023/08/25 03:49:20;;;;;;;9.65;1.73;;;17.20;99.90;;;;;;5028004;28;20132;-61
2023/08/25 03:51:47;;;;;;;4.63;2.28;;;17.10;99.90;;;;;;5024834;28;20060;-62
2023/08/25 03:54:13;;;;;;;4.30;1.40;;;17.10;99.90;;;;;;5028211;28;20038;-63
2023/08/25 03:56:40;;;;;;;7.25;1.63;;;17.00;99.90;;;;;;5031972;28;20061;-62
2023/08/25 03:59:07;;;;;;;4.60;1.75;;;17.00;99.90;;;;;;5031138;28;20057;-62
2023/08/25 04:01:34;;;;;;;2.55;1.02;;;17.00;99.90;;;;;;5028311;28;20053;-62
2023/08/25 04:04:01;;;;;;;7.25;2.15;;;17.00;99.90;;;;;;5030988;28;20147;-63
2023/08/25 04:06:28;;;;;;;2.80;1.10;;;17.00;99.90;;;;;;5029388;28;20062;-60
2023/08/25 04:08:55;;;;;;;3.42;1.52;;;16.90;99.90;;;;;;5030552;28;20118;-61
2023/08/25 04:11:22;;;;;;;4.00;1.80;;;16.90;99.90;;;;;;5027606;28;20045;-60
2023/08/25 04:13:48;;;;;;;3.88;1.20;;;16.90;99.90;;;;;;5031157;28;20073;-61
2023/08/25 04:16:15;;;;;;;3.95;1.15;;;16.90;99.90;;;;;;5031775;28;20049;-61
2023/08/25 04:18:42;;;;;;;3.40;1.50;;;16.90;99.90;;;;;;5031048;28;20570;-61
2023/08/25 04:21:08;;;;;;;3.63;1.17;;;16.90;99.90;;;;;;5028195;28;20100;-61
2023/08/25 04:23:36;;;;;;;4.45;1.30;;;16.90;99.90;;;;;;5031154;28;20045;-62
2023/08/25 04:26:02;;;;;;;6.55;1.15;;;16.90;99.90;;;;;;5030952;28;20045;-62
2023/08/25 04:28:29;;;;;;;3.15;1.00;;;16.90;99.90;;;;;;5031202;28;20087;-63
2023/08/25 04:30:56;;;;;;;3.47;1.30;;;16.90;99.90;;;;;;5017319;28;20064;-61
2023/08/25 04:33:23;;;;;;;6.68;1.50;;;16.90;99.90;;;;;;5030872;28;20492;-61
2023/08/25 04:35:50;;;;;;;5.07;1.70;;;16.90;99.90;;;;;;5030777;28;20037;-62
2023/08/25 04:38:16;;;;;;;5.32;2.67;;;16.80;99.90;;;;;;5030784;28;20056;-61
2023/08/25 04:40:43;;;;;;;4.78;1.20;;;16.80;99.90;;;;;;5028065;28;20554;-61
2023/08/25 04:43:10;;;;;;;4.30;1.70;;;16.80;99.90;;;;;;5029182;28;20253;-60
2023/08/25 04:45:37;;;;;;;3.72;0.88;;;16.80;99.90;;;;;;5030467;28;20045;-61
2023/08/25 04:48:04;;;;;;;4.55;1.38;;;16.80;99.90;;;;;;5030862;28;20389;-60
2023/08/25 04:50:31;;;;;;;3.80;1.40;;;16.70;99.90;;;;;;5028978;28;20073;-61
2023/08/25 04:52:57;;;;;;;9.73;1.60;;;16.70;99.90;;;;;;5030758;28;20042;-61
2023/08/25 04:55:24;;;;;;;3.47;0.98;;;16.60;99.90;;;;;;5030548;28;20080;-61
2023/08/25 04:57:51;;;;;;;3.90;1.42;;;16.50;99.90;;;;;;5030264;28;20045;-61
2023/08/25 05:00:18;;;;;;;3.42;0.82;;;16.50;99.90;;;;;;5013178;28;20045;-61
2023/08/25 05:02:48;;;;;;;3.03;1.13;;;16.40;99.90;;;;;;5012996;28;20111;-60
2023/08/25 05:05:17;;;;;;;2.88;0.98;;;16.40;99.90;;;;;;5033150;28;20394;-60
2023/08/25 05:07:43;;;;;;;4.30;1.30;;;16.30;99.90;;;;;;5032691;28;20103;-61
2023/08/25 05:10:10;;;;;;;10.63;1.42;;;16.30;99.90;;;;;;5027971;28;20137;-60
2023/08/25 05:12:38;;;;;;;3.22;1.20;;;16.30;99.90;;;;;;5030140;28;20472;-61
2023/08/25 05:15:05;;;;;;;9.35;1.48;;;16.20;99.90;;;;;;5030243;28;20330;-62
2023/08/25 05:17:32;;;;;;;2.17;1.13;;;16.20;99.90;;;;;;5030149;28;20574;-62
2023/08/25 05:19:59;;;;;;;3.05;1.08;;;16.20;99.90;;;;;;5028937;28;20049;-61
2023/08/25 05:22:26;;;;;;;5.78;1.05;;;16.30;99.90;;;;;;5011475;28;20053;-61
2023/08/25 05:24:52;;;;;;;8.93;1.65;;;16.20;99.90;;;;;;5030050;28;20059;-61
2023/08/25 05:27:19;;;;;;;3.28;1.02;;;16.20;99.90;;;;;;5030282;28;20053;-61
2023/08/25 05:29:46;;;;;;;4.93;1.30;;;16.20;99.90;;;;;;5029923;28;20059;-62
2023/08/25 05:32:13;;;;;;;6.53;1.38;;;16.10;99.90;;;;;;5029499;28;20115;-62
2023/08/25 05:34:39;;;;;;;9.40;2.83;;;16.20;99.90;;;;;;5029779;28;20050;-62
2023/08/25 05:37:06;;;;;;;3.25;1.30;;;16.20;99.90;;;;;;5030133;28;20053;-62
2023/08/25 05:39:33;;;;;;;5.10;1.38;;;16.20;99.90;;;;;;5030404;28;20042;-62
2023/08/25 05:42:00;;;;;;;4.88;1.40;;;16.10;99.90;;;;;;5029565;28;20045;-62
2023/08/25 05:44:26;;;;;;;3.85;1.02;;;16.20;99.90;;;;;;5029802;28;20577;-62
2023/08/25 05:46:53;;;;;;;1.95;0.80;;;16.20;99.90;;;;;;5029611;28;20287;-62
2023/08/25 05:49:20;;;;;;;3.15;1.10;;;16.20;99.90;;;;;;5029433;28;20045;-62
2023/08/25 05:51:47;;;;;;;3.60;1.23;;;16.20;99.90;;;;;;5028840;28;20041;-62
2023/08/25 05:54:15;;;;;;;5.55;1.00;;;16.30;99.90;;;;;;5027249;28;20083;-61
2023/08/25 05:56:42;;;;;;;4.53;1.00;;;16.30;99.90;;;;;;5011989;28;20161;-62
2023/08/25 05:59:09;;;;;;;3.17;1.13;;;16.30;99.90;;;;;;5029381;28;20056;-62
2023/08/25 06:01:35;;;;;;;4.60;1.10;;;16.30;99.90;;;;;;5029277;28;20038;-61
2023/08/25 06:04:03;;;;;;;4.75;0.90;;;16.30;99.90;;;;;;5029230;28;20119;-61
2023/08/25 06:06:30;;;;;;;2.65;0.98;;;16.30;99.90;;;;;;5029048;28;20045;-60
2023/08/25 06:08:57;;;;;;;3.47;1.52;;;16.30;99.90;;;;;;5029038;28;20525;-63
2023/08/25 06:11:24;;;;;;;5.72;2.00;;;16.30;99.90;;;;;;5029033;28;20073;-61
2023/08/25 06:13:50;;;;;;;3.47;0.98;;;16.30;99.90;;;;;;5029276;28;20060;-61
2023/08/25 06:16:17;;;;;;;2.25;0.90;;;16.30;99.90;;;;;;5011458;28;20515;-61
2023/08/25 06:18:44;;;;;;;7.70;1.02;;;16.30;99.90;;;;;;5028446;28;20046;-61
2023/08/25 06:21:11;;;;;;;8.95;2.00;;;16.30;99.90;;;;;;5029553;28;20068;-62
2023/08/25 06:23:38;;;;;;;2.97;0.68;;;16.30;99.90;;;;;;5028337;28;20046;-62
2023/08/25 06:26:06;;;;;;;4.60;1.15;;;16.30;99.90;;;;;;5029360;28;20099;-62
2023/08/25 06:28:33;;;;;;;7.85;1.23;;;16.40;99.90;;;;;;5029439;28;20061;-64
2023/08/25 06:31:00;;;;;;;4.43;0.93;;;16.30;99.90;;;;;;5025255;28;20142;-63
2023/08/25 06:33:29;;;;;;;6.25;1.27;;;16.30;99.90;;;;;;4994830;28;20481;-62
2023/08/25 06:35:57;;;;;;;3.60;0.98;;;16.40;99.90;;;;;;5021625;28;20068;-64
2023/08/25 06:38:24;;;;;;;4.60;1.40;;;16.30;99.90;;;;;;5028441;28;20049;-62
2023/08/25 06:40:51;;;;;;;5.15;1.30;;;16.40;99.90;;;;;;5025889;28;20049;-62
2023/08/25 06:43:18;;;;;;;3.75;1.20;;;16.30;99.90;;;;;;5028142;28;20041;-63
2023/08/25 06:45:46;;;;;;;3.72;1.52;;;16.40;99.90;;;;;;5028380;28;20084;-62
2023/08/25 06:48:13;;;;;;;4.13;1.10;;;16.40;99.90;;;;;;5028157;28;20049;-62
2023/08/25 06:50:40;;;;;;;4.25;1.13;;;16.40;99.90;;;;;;5026618;28;20555;-62
2023/08/25 06:53:07;;;;;;;4.07;0.95;;;16.40;99.90;;;;;;5026902;28;20052;-62
2023/08/25 06:55:34;;;;;;;6.32;0.98;;;16.40;99.90;;;;;;5028431;28;20044;-62
2023/08/25 06:58:02;;;;;;;5.38;1.30;;;16.40;99.90;;;;;;5028157;28;20507;-62
2023/08/25 07:00:29;;;;;;;6.68;1.02;;;16.50;99.90;;;;;;5025636;28;20481;-63
2023/08/25 07:02:56;;;;;;;8.13;1.42;;;16.30;99.90;;;;;;5027176;28;20042;-62
2023/08/25 07:05:25;;;;;;;5.00;1.00;;;16.40;99.90;;;;;;5010576;28;20143;-62
2023/08/25 07:07:52;;;;;;;8.40;2.35;;;16.40;99.90;;;;;;5017776;28;20112;-62
2023/08/25 07:10:20;;;;;;;5.45;1.00;;;16.40;99.90;;;;;;5027595;28;20103;-62
2023/08/25 07:12:47;;;;;;;4.15;1.02;;;16.40;99.90;;;;;;5028224;28;20060;-62
2023/08/25 07:15:14;;;;;;;6.95;1.00;;;16.40;99.90;;;;;;5025510;28;20045;-63
2023/08/25 07:17:41;;;;;;;2.63;1.05;;;16.40;99.90;;;;;;5028031;28;20229;-63
2023/08/25 07:20:10;;;;;;;5.93;1.10;;;16.50;99.90;;;;;;5028072;28;20051;-63
2023/08/25 07:22:37;;;;;;;5.07;0.93;;;16.40;99.90;;;;;;5028091;28;20049;-62
2023/08/25 07:25:04;;;;;;;5.40;1.00;;;16.50;99.90;;;;;;5027717;28;20045;-62
2023/08/25 07:27:31;;;;;;;5.75;0.80;;;16.60;99.90;;;;;;5027874;28;20049;-63
2023/08/25 07:29:59;;;;;;;5.72;1.05;;;16.60;99.90;;;;;;5027456;28;20045;-63
2023/08/25 07:32:26;;;;;;;1.63;0.60;;;16.60;99.90;;;;;;5027841;28;20049;-61
2023/08/25 07:34:55;;;;;;;2.25;0.68;;;16.60;99.90;;;;;;5027524;28;20057;-62
2023/08/25 07:37:22;;;;;;;2.58;0.70;;;16.70;99.90;;;;;;5028187;28;20128;-63
2023/08/25 07:39:50;;;;;;;1.75;0.90;;;16.70;99.90;;;;;;5027820;28;20299;-62
2023/08/25 07:42:21;;;;;;;5.43;0.70;;;16.70;99.90;;;;;;5028454;28;20508;-61
2023/08/25 07:44:48;;;;;;;9.43;1.10;;;16.70;99.90;;;;;;5030541;28;20182;-60
2023/08/25 07:47:15;;;;;;;5.00;0.82;;;16.80;99.90;;;;;;5030642;28;20045;-62
2023/08/25 07:49:43;;;;;;;1.48;0.65;;;16.90;99.90;;;;;;5009892;28;20501;-61
2023/08/25 07:52:09;;;;;;;8.65;0.82;;;16.90;99.90;;;;;;5027549;28;20056;-63
2023/08/25 07:54:37;;;;;;;1.95;0.75;;;16.90;99.90;;;;;;5027891;28;20045;-62
2023/08/25 07:57:05;;;;;;;6.90;0.93;;;17.00;99.90;;;;;;5026257;28;20073;-62
2023/08/25 07:59:31;;;;;;;2.22;0.55;;;17.10;99.90;;;;;;5027853;28;20401;-62
2023/08/25 08:01:58;;;;;;;3.35;0.80;;;17.10;99.90;;;;;;5027004;28;20049;-62
2023/08/25 08:04:25;;;;;;;4.07;0.95;;;17.10;99.90;;;;;;5027553;28;20046;-62
2023/08/25 08:06:53;;;;;;;3.78;0.93;;;17.20;99.90;;;;;;5027029;28;20412;-62
2023/08/25 08:09:19;;;;;;;5.63;0.82;;;17.20;99.90;;;;;;5027662;28;20088;-62
2023/08/25 08:11:46;;;;;;;6.00;0.70;;;17.30;99.90;;;;;;5026826;28;20045;-62
2023/08/25 08:14:13;;;;;;;3.33;1.10;;;17.30;99.90;;;;;;5027787;28;20057;-61
2023/08/25 08:16:40;;;;;;;3.50;0.80;;;17.30;99.90;;;;;;5027157;28;20177;-62
2023/08/25 08:19:07;;;;;;;3.65;0.90;;;17.40;99.90;;;;;;5027451;28;20140;-63
2023/08/25 08:21:33;;;;;;;4.22;0.88;;;17.50;99.90;;;;;;5027394;28;20046;-63
2023/08/25 08:24:01;;;;;;;2.58;1.05;;;17.50;99.90;;;;;;5027554;28;20037;-62
2023/08/25 08:26:28;;;;;;;2.72;0.75;;;17.30;99.90;;;;;;5027196;28;20407;-62
2023/08/25 08:28:55;;;;;;;3.00;0.80;;;17.20;99.90;;;;;;5027615;28;20108;-62
2023/08/25 08:31:22;;;;;;;3.85;1.42;;;17.20;99.90;;;;;;5027355;28;20107;-63
2023/08/25 08:33:49;;;;;;;3.75;0.68;;;17.30;99.90;;;;;;5023391;28;20045;-62
2023/08/25 08:36:17;;;;;;;3.30;0.90;;;17.30;99.90;;;;;;5027015;28;20041;-62
2023/08/25 08:38:43;;;;;;;2.00;0.60;;;17.20;99.90;;;;;;5027084;28;20061;-63
2023/08/25 08:41:10;;;;;;;1.98;1.00;;;17.20;99.90;;;;;;5011057;28;20049;-63
2023/08/25 08:43:41;;;;;;;3.30;1.23;;;17.10;99.90;;;;;;5029614;28;20045;-62
2023/08/25 08:46:08;;;;;;;2.90;1.08;;;17.10;99.90;;;;;;5003036;28;20046;-62
2023/08/25 08:48:35;;;;;;;4.85;0.90;;;17.20;99.90;;;;;;5013101;28;20430;-62
2023/08/25 08:51:02;;;;;;;5.57;1.00;;;17.20;99.90;;;;;;5028145;28;20079;-62
2023/08/25 08:53:29;;;;;;;3.40;0.70;;;17.30;99.90;;;;;;5024323;28;20408;-62
2023/08/25 08:55:56;;;;;;;2.10;0.98;;;17.30;99.90;;;;;;5012504;28;20099;-62
2023/08/25 08:58:23;;;;;;;2.80;0.65;;;17.30;99.90;;;;;;5012895;28;20057;-63
2023/08/25 09:00:50;;;;;;;3.63;0.77;;;17.30;99.90;;;;;;5030691;28;20203;-63
2023/08/25 09:03:20;;;;;;;3.38;0.63;;;17.20;99.90;;;;;;5012792;28;20055;-62
2023/08/25 09:05:47;;;;;;;16.98;2.05;;;17.20;99.90;;;;;;5012353;28;20058;-63
2023/08/25 09:08:14;;;;;;;6.65;1.95;;;17.40;99.90;;;;;;5012893;28;20107;-63
2023/08/25 09:10:41;;;;;;;3.80;0.88;;;17.60;99.90;;;;;;5029807;28;20053;-63
2023/08/25 09:13:08;;;;;;;4.38;1.40;;;17.70;99.90;;;;;;5028402;28;20054;-62
2023/08/25 09:15:35;;;;;;;3.00;1.10;;;17.80;99.90;;;;;;5030181;28;20053;-62
2023/08/25 09:18:06;;;;;;;4.18;0.73;;;17.80;99.90;;;;;;5012583;28;20057;-62
2023/08/25 09:20:35;;;;;;;3.80;1.33;;;17.90;99.90;;;;;;5029639;28;20045;-62
2023/08/25 09:23:02;;;;;;;3.45;0.98;;;17.90;99.90;;;;;;5030439;28;20132;-62
2023/08/25 09:25:29;;;;;;;2.45;0.80;;;18.00;99.90;;;;;;5029986;28;20045;-62
2023/08/25 09:28:00;;;;;;;4.70;0.63;;;18.20;99.90;;;;;;5030203;28;20103;-63
2023/08/25 09:30:35;;;;;;;4.82;0.70;;;18.20;99.90;;;;;;5012966;28;20045;-63
2023/08/25 09:33:09;;;;;;;2.05;0.70;;;18.30;99.90;;;;;;5029954;28;20050;-62
2023/08/25 09:35:36;;;;;;;2.28;0.70;;;18.40;99.90;;;;;;5027043;28;20069;-63
2023/08/25 09:38:03;;;;;;;2.25;0.80;;;18.60;99.90;;;;;;5012083;28;20059;-63
2023/08/25 09:40:35;;;;;;;5.25;1.13;;;18.90;99.90;;;;;;5029330;28;20471;-64
2023/08/25 09:43:03;;;;;;;4.50;0.60;;;19.20;99.90;;;;;;5027998;28;20045;-63
2023/08/25 09:45:31;;;;;;;8.95;1.55;;;19.20;99.90;;;;;;5029409;28;20063;-63
2023/08/25 09:48:08;;;;;;;2.08;0.70;;;19.40;99.90;;;;;;5029963;28;20045;-64
2023/08/25 09:50:39;;;;;;;6.03;1.08;;;19.60;99.90;;;;;;5027827;28;20061;-62
2023/08/25 09:53:07;;;;;;;4.22;1.15;;;19.80;99.90;;;;;;5024326;28;20049;-64
2023/08/25 09:55:35;;;;;;;4.75;0.98;;;19.80;99.90;;;;;;5029015;28;20505;-65
2023/08/25 09:58:06;;;;;;;2.35;0.70;;;19.80;99.90;;;;;;5029859;28;20050;-64
2023/08/25 10:00:34;;;;;;;5.35;1.05;;;19.90;99.90;;;;;;5012222;28;20077;-63
2023/08/25 10:03:06;;;;;;;2.05;1.02;;;19.90;99.90;;;;;;5029173;28;20432;-65
2023/08/25 10:05:35;;;;;;;;;;;19.80;99.90;;;;;;5029122;28;20053;-64
2023/08/25 10:08:02;;;;;;;6.32;0.80;;;19.40;99.40;;;;;;5029099;28;19921;-62
2023/08/25 10:10:36;;;;;;;2.42;0.68;;;19.40;99.90;;;;;;5029483;28;20081;-63
2023/08/25 10:13:03;;;;;;;3.85;1.02;;;19.40;99.90;;;;;;5015235;28;20069;-63
2023/08/25 10:15:33;;;;;;;3.05;0.73;;;19.30;99.90;;;;;;5028988;28;20049;-63
2023/08/25 10:18:02;;;;;;;7.10;2.08;;;19.30;99.90;;;;;;5011544;28;20492;-63
2023/08/25 10:20:29;;;;;;;5.63;0.93;;;19.50;99.90;;;;;;5011775;28;20105;-63
2023/08/25 10:22:57;;;;;;;3.28;0.70;;;19.90;99.90;;;;;;5030744;28;20107;-63
2023/08/25 10:25:31;;;;;;;5.80;1.10;;;20.10;99.90;;;;;;5014932;28;20103;-63
2023/08/25 10:28:02;;;;;;;2.92;0.98;;;20.30;99.90;;;;;;5014399;28;20072;-64
2023/08/25 10:30:29;;;;;;;2.30;0.98;;;20.20;99.90;;;;;;5028968;28;20123;-63
2023/08/25 10:32:59;;;;;;;1.90;0.75;;;20.40;99.90;;;;;;4995038;28;20053;-64
2023/08/25 10:35:44;;;;;;;3.58;0.77;;;20.50;99.40;;;;;;5011199;28;20076;-64
2023/08/25 10:38:17;;;;;;;3.35;1.42;;;20.50;98.60;;;;;;5020395;28;20049;-65
2023/08/25 10:40:55;;;;;;;4.43;1.23;;;20.20;98.20;;;;;;5010915;28;20544;-62
2023/08/25 10:43:25;;;;;;;2.30;0.80;;;20.10;99.30;;;;;;5026772;28;20287;-63
2023/08/25 10:45:52;;;;;;;3.67;1.13;;;20.20;99.50;;;;;;5025923;28;20128;-63
2023/08/25 10:48:19;;;;;;;4.18;1.33;;;20.20;99.90;;;;;;5028585;28;20077;-63
2023/08/25 10:51:10;;;;;;;2.55;0.95;;;20.40;99.90;;;;;;5028265;28;20496;-62
2023/08/25 10:53:38;;;;;;;6.03;1.55;;;20.50;98.20;;;;;;5019260;28;20049;-62
2023/08/25 10:56:23;;;;;;;3.60;0.70;;;20.40;99.10;;;;;;5028360;28;20038;-62
2023/08/25 10:58:57;;;;;;;4.13;1.20;;;20.50;97.40;;;;;;5019632;28;20268;-62
2023/08/25 11:01:45;;;;;;;5.22;1.02;;;20.70;97.60;;;;;;5028465;28;20049;-62
2023/08/25 11:04:29;;;;;;;3.28;0.85;;;20.80;99.50;;;;;;5013087;28;20052;-62
2023/08/25 11:06:57;;;;;;;1.95;1.00;;;21.10;98.20;;;;;;5026715;28;20042;-64
2023/08/25 11:09:24;;;;;;;3.30;1.10;;;21.00;97.00;;;;;;5028029;28;20096;-62
2023/08/25 11:11:59;;;;;;;7.22;1.15;;;21.00;97.70;;;;;;5027950;28;20049;-62
2023/08/25 11:14:34;;;;;;;2.05;0.90;;;20.60;98.20;;;;;;5028251;28;20158;-63
2023/08/25 11:17:03;;;;;;;4.65;1.00;;;20.90;96.50;;;;;;5028186;28;20072;-63
2023/08/25 11:19:32;;;;;;;6.03;1.15;;;21.20;98.20;;;;;;5028297;28;20128;-64
2023/08/25 11:22:07;;;;;;;3.00;0.93;;;21.30;95.90;;;;;;5027844;28;20042;-63
2023/08/25 11:24:35;;;;;;;3.28;0.77;;;20.70;96.10;;;;;;5018516;28;20037;-64
2023/08/25 11:27:09;;;;;;;2.05;0.70;;;20.60;97.00;;;;;;5028014;28;20087;-65
2023/08/25 11:29:37;;;;;;;6.35;1.10;;;20.70;96.40;;;;;;5027769;28;20041;-61
2023/08/25 11:32:04;;;;;;;5.07;1.50;;;20.90;97.00;;;;;;5028250;28;20402;-62
2023/08/25 11:34:33;;;;;;;5.38;0.90;;;20.90;97.40;;;;;;5010252;28;20504;-63
2023/08/25 11:37:00;;;;;;;6.13;0.93;;;21.00;97.10;;;;;;5028055;28;20451;-62
2023/08/25 11:39:27;;;;;;;7.53;1.33;;;21.10;97.80;;;;;;5021786;28;20045;-63
2023/08/25 11:41:55;;;;;;;6.13;1.10;;;21.10;96.90;;;;;;5028041;28;20483;-63
2023/08/25 11:44:23;;;;;;;4.78;1.48;;;20.80;96.70;;;;;;5027539;28;21113;-62
2023/08/25 11:46:53;;;;;;;5.22;1.13;;;20.80;97.30;;;;;;5010510;28;20042;-62
2023/08/25 11:49:26;;;;;;;4.70;0.90;;;20.70;97.80;;;;;;5027406;28;20136;-62
2023/08/25 11:51:53;;;;;;;4.38;1.30;;;20.60;96.50;;;;;;5010642;28;20033;-63
2023/08/25 11:54:20;;;;;;;6.82;1.10;;;20.40;96.10;;;;;;5027744;28;20065;-63
2023/08/25 11:56:51;;;;;;;3.15;0.70;;;20.40;97.00;;;;;;5026462;28;20049;-63
2023/08/25 11:59:19;;;;;;;2.17;0.73;;;20.50;95.60;;;;;;5027528;28;20096;-63
2023/08/25 12:01:51;;;;;;;4.22;0.75;;;20.50;95.70;;;;;;5027598;28;20095;-62
2023/08/25 12:04:25;;;;;;;3.85;0.90;;;20.40;94.70;;;;;;5009680;28;20053;-63
2023/08/25 12:06:53;;;;;;;3.03;1.08;;;20.20;95.60;;;;;;5027409;28;20429;-63
2023/08/25 12:09:21;;;;;;;3.47;0.70;;;20.40;95.60;;;;;;5027493;28;20045;-63
2023/08/25 12:11:48;;;;;;;2.72;1.23;;;20.40;94.20;;;;;;5010018;28;20054;-61
2023/08/25 12:14:28;;;;;;;5.28;1.00;;;20.30;95.30;;;;;;5009885;28;20077;-63
2023/08/25 12:16:58;;;;;;;1.70;0.90;;;20.20;92.80;;;;;;5031118;28;20041;-62
2023/08/25 12:19:28;;;;;;;5.75;0.73;;;20.30;94.70;;;;;;5030931;28;20072;-63
2023/08/25 12:21:56;;;;;;;1.67;0.63;;;20.20;94.50;;;;;;5031342;28;20404;-63
2023/08/25 12:24:23;;;;;;;2.38;0.80;;;20.30;95.20;;;;;;5031050;28;20128;-63
2023/08/25 12:26:50;;;;;;;2.20;0.73;;;20.40;92.90;;;;;;5031253;28;20492;-63
2023/08/25 12:29:19;;;;;;;2.63;0.80;;;20.50;93.10;;;;;;5030975;28;20528;-63
2023/08/25 12:31:45;;;;;;;1.90;0.73;;;20.50;93.20;;;;;;5013864;28;20057;-63
2023/08/25 12:34:12;;;;;;;1.20;0.65;;;20.70;93.80;;;;;;5030670;28;20065;-63
2023/08/25 12:36:39;;;;;;;3.20;0.60;;;20.80;93.40;;;;;;5031013;28;20095;-62
2023/08/25 12:39:06;;;;;;;1.95;0.65;;;20.90;92.10;;;;;;5031033;28;20049;-62
2023/08/25 12:41:32;;;;;;;1.35;0.60;;;20.90;93.10;;;;;;5029735;28;20041;-64
2023/08/25 12:43:59;;;;;;;1.48;0.65;;;21.00;91.60;;;;;;5031009;28;20081;-63
2023/08/25 12:46:26;;;;;;;4.68;0.68;;;20.90;92.40;;;;;;5030204;28;20107;-64
2023/08/25 12:48:53;;;;;;;2.72;0.80;;;21.10;90.30;;;;;;5030884;28;20061;-64
2023/08/25 12:51:20;;;;;;;2.85;0.80;;;21.00;91.60;;;;;;5028931;28;20053;-63
2023/08/25 12:53:47;;;;;;;1.63;0.50;;;21.00;90.70;;;;;;5030011;28;20488;-63